Time;durP1;ratioP1;P1;durP2;ratioP2;P2;SDS_P1;SDS_P2;PMS_P1;PMS_P2;Temp;Humidity;BMP_temperature;BMP_pressure;BME280_temperature;BME280_humidity;BME280_pressure;Samples;Min_cycle;Max_cycle;Signal;HPM_P1;HPM_P2
2023/05/27 00:02:26;;;;;;;13.93;3.70;;;10.80;99.90;;;;;;5196500;28;20171;-44
2023/05/27 00:04:57;;;;;;;23.67;4.20;;;10.70;99.90;;;;;;5200456;28;20663;-45
2023/05/27 00:07:30;;;;;;;8.73;3.47;;;10.70;99.90;;;;;;5190935;28;20180;-44
2023/05/27 00:10:01;;;;;;;11.07;4.87;;;10.60;99.90;;;;;;5199757;28;20199;-46
2023/05/27 00:12:32;;;;;;;15.23;4.10;;;10.60;99.90;;;;;;5194843;28;20496;-46
2023/05/27 00:15:03;;;;;;;9.10;3.90;;;10.60;99.90;;;;;;5196997;28;20254;-46
2023/05/27 00:17:35;;;;;;;4.33;3.27;;;10.50;99.90;;;;;;5194694;28;20188;-44
2023/05/27 00:20:07;;;;;;;11.03;3.37;;;10.50;99.90;;;;;;5200580;28;20528;-44
2023/05/27 00:22:37;;;;;;;8.63;3.57;;;10.50;99.90;;;;;;5198040;28;22779;-45
2023/05/27 00:25:08;;;;;;;14.23;3.30;;;10.40;99.90;;;;;;5201005;28;20430;-45
2023/05/27 00:27:39;;;;;;;14.30;3.70;;;10.40;99.90;;;;;;5199384;28;20211;-45
2023/05/27 00:30:10;;;;;;;15.07;3.60;;;10.30;99.90;;;;;;5198107;28;20200;-44
2023/05/27 00:32:40;;;;;;;8.63;3.37;;;10.30;99.90;;;;;;5197149;28;20195;-45
2023/05/27 00:35:11;;;;;;;13.40;3.43;;;10.30;99.90;;;;;;5200075;28;20488;-45
2023/05/27 00:37:42;;;;;;;12.43;4.03;;;10.20;99.90;;;;;;5196296;28;20207;-45
2023/05/27 00:40:15;;;;;;;9.20;3.53;;;10.20;99.90;;;;;;5199730;28;20643;-46
2023/05/27 00:42:45;;;;;;;10.87;3.63;;;10.10;99.90;;;;;;5198927;28;20187;-44
2023/05/27 00:45:16;;;;;;;14.50;3.60;;;10.20;99.90;;;;;;5211415;28;20431;-45
2023/05/27 00:47:47;;;;;;;13.23;2.77;;;10.10;99.90;;;;;;5199436;28;20226;-45
2023/05/27 00:50:18;;;;;;;12.17;3.60;;;10.10;99.90;;;;;;5200298;28;20278;-46
2023/05/27 00:52:49;;;;;;;9.23;3.33;;;10.00;99.90;;;;;;5202010;28;20202;-45
2023/05/27 00:55:20;;;;;;;10.27;3.77;;;10.00;99.90;;;;;;5202870;28;20791;-45
2023/05/27 00:57:53;;;;;;;7.10;3.30;;;9.90;99.90;;;;;;5204836;28;20245;-45
2023/05/27 01:00:24;;;;;;;8.20;3.33;;;9.90;99.90;;;;;;5184509;28;20199;-46
2023/05/27 01:02:55;;;;;;;8.47;3.13;;;9.90;99.90;;;;;;5200977;28;20430;-45
2023/05/27 01:05:27;;;;;;;11.37;4.37;;;9.90;99.90;;;;;;5203998;28;20590;-44
2023/05/27 01:08:22;;;;;;;10.43;3.00;;;9.90;99.90;;;;;;5204171;28;20423;-45
2023/05/27 01:10:54;;;;;;;11.33;4.03;;;9.90;99.90;;;;;;5207607;28;20507;-45
2023/05/27 01:13:45;;;;;;;21.03;4.50;;;9.80;99.90;;;;;;5208512;28;20543;-45
2023/05/27 01:16:18;;;;;;;11.20;3.80;;;9.80;99.90;;;;;;5218754;28;20429;-45
2023/05/27 01:18:52;;;;;;;8.63;4.00;;;9.80;99.90;;;;;;5206911;28;20492;-44
2023/05/27 01:21:24;;;;;;;10.07;4.00;;;9.80;99.90;;;;;;5204955;28;20426;-45
2023/05/27 01:24:02;;;;;;;6.97;3.77;;;9.70;99.90;;;;;;5181582;28;20438;-45
2023/05/27 01:26:33;;;;;;;10.07;2.93;;;9.70;99.90;;;;;;5201326;28;20953;-45
2023/05/27 01:29:04;;;;;;;8.10;3.87;;;9.70;99.90;;;;;;5201321;28;20884;-45
2023/05/27 01:31:42;;;;;;;12.37;3.80;;;9.60;99.90;;;;;;5201141;28;20452;-45
2023/05/27 01:34:18;;;;;;;7.60;3.73;;;9.60;99.90;;;;;;5201146;28;20214;-44
2023/05/27 01:36:59;;;;;;;11.03;3.50;;;9.60;99.90;;;;;;5196907;28;20472;-44
2023/05/27 01:39:30;;;;;;;8.63;3.63;;;9.70;99.90;;;;;;5197771;28;20962;-45
2023/05/27 01:42:02;;;;;;;12.80;4.40;;;9.60;99.90;;;;;;5202356;28;20524;-45
2023/05/27 01:44:33;;;;;;;13.23;3.10;;;9.60;99.90;;;;;;5201492;28;20438;-45
2023/05/27 01:47:04;;;;;;;8.93;4.00;;;9.60;99.90;;;;;;5198169;28;20988;-45
2023/05/27 01:49:35;;;;;;;16.20;3.70;;;9.50;99.90;;;;;;5194265;28;20199;-45
2023/05/27 01:52:06;;;;;;;9.40;3.97;;;9.50;99.90;;;;;;5200351;28;20441;-45
2023/05/27 01:54:36;;;;;;;8.70;3.97;;;9.50;99.90;;;;;;5199280;28;20195;-46
2023/05/27 01:57:07;;;;;;;17.73;4.43;;;9.50;99.90;;;;;;5198121;28;20666;-45
2023/05/27 01:59:38;;;;;;;8.07;3.47;;;9.50;99.90;;;;;;5199248;28;20843;-45
2023/05/27 02:02:08;;;;;;;10.23;4.60;;;9.50;99.90;;;;;;5203310;28;20178;-45
2023/05/27 02:04:39;;;;;;;9.97;4.27;;;9.40;99.90;;;;;;5202222;28;20180;-45
2023/05/27 02:07:10;;;;;;;18.33;3.70;;;9.40;99.90;;;;;;5201409;28;20230;-45
2023/05/27 02:09:41;;;;;;;18.70;3.93;;;9.40;99.90;;;;;;5215095;28;20203;-45
2023/05/27 02:12:11;;;;;;;13.83;4.10;;;9.30;99.90;;;;;;5184287;28;20438;-45
2023/05/27 02:14:42;;;;;;;8.40;4.50;;;9.30;99.90;;;;;;5198559;28;20265;-45
2023/05/27 02:17:14;;;;;;;11.20;3.47;;;9.30;99.90;;;;;;5197873;28;20185;-45
2023/05/27 02:19:45;;;;;;;10.23;3.90;;;9.30;99.90;;;;;;5200302;28;21146;-45
2023/05/27 02:22:16;;;;;;;9.10;3.50;;;9.30;99.90;;;;;;5197540;28;20462;-45
2023/05/27 02:24:47;;;;;;;22.33;4.33;;;9.30;99.90;;;;;;5201887;28;20662;-44
2023/05/27 02:27:18;;;;;;;6.90;4.10;;;9.20;99.90;;;;;;5199977;28;20438;-44
2023/05/27 02:29:48;;;;;;;6.93;3.90;;;9.30;99.90;;;;;;5200514;28;20207;-45
2023/05/27 02:32:19;;;;;;;11.33;3.60;;;9.30;99.90;;;;;;5199121;28;20199;-45
2023/05/27 02:34:50;;;;;;;14.53;4.40;;;9.20;99.90;;;;;;5198995;28;20739;-46
2023/05/27 02:37:20;;;;;;;13.80;3.90;;;9.30;99.90;;;;;;5200600;28;20176;-45
2023/05/27 02:39:54;;;;;;;19.30;5.00;;;9.30;99.90;;;;;;5199177;28;20282;-45
2023/05/27 02:42:26;;;;;;;7.33;3.20;;;9.20;99.90;;;;;;5201437;28;20187;-45
2023/05/27 02:44:56;;;;;;;9.60;4.03;;;9.20;99.90;;;;;;5198962;28;20442;-45
2023/05/27 02:47:27;;;;;;;14.80;4.40;;;9.20;99.90;;;;;;5190933;28;20443;-45
2023/05/27 02:49:57;;;;;;;11.50;3.77;;;9.20;99.90;;;;;;5197846;28;20781;-45
2023/05/27 02:52:28;;;;;;;6.83;4.97;;;9.10;99.90;;;;;;5196506;28;20183;-45
2023/05/27 02:54:59;;;;;;;14.67;4.90;;;9.20;99.90;;;;;;5199517;28;20622;-46
2023/05/27 02:57:29;;;;;;;19.00;4.07;;;9.10;99.90;;;;;;5200232;28;20300;-45
2023/05/27 03:00:00;;;;;;;15.70;4.80;;;9.10;99.90;;;;;;5199220;28;20250;-45
2023/05/27 03:02:31;;;;;;;11.00;4.53;;;9.10;99.90;;;;;;5193801;28;20229;-45
2023/05/27 03:05:01;;;;;;;15.90;5.10;;;9.10;99.90;;;;;;5198116;28;20180;-44
2023/05/27 03:07:32;;;;;;;16.53;4.47;;;9.10;99.90;;;;;;5183967;28;20187;-45
2023/05/27 03:10:03;;;;;;;22.43;5.20;;;9.00;99.90;;;;;;5199751;28;20203;-45
2023/05/27 03:12:34;;;;;;;13.27;5.20;;;9.10;99.90;;;;;;5194719;28;20242;-44
2023/05/27 03:15:05;;;;;;;11.43;4.40;;;9.20;99.90;;;;;;5198348;28;20462;-46
2023/05/27 03:17:37;;;;;;;16.63;4.50;;;9.10;99.90;;;;;;5215934;28;21013;-45
2023/05/27 03:20:08;;;;;;;8.70;3.60;;;9.20;99.90;;;;;;5209532;28;20567;-45
2023/05/27 03:22:39;;;;;;;11.27;4.67;;;9.20;99.90;;;;;;5197332;28;20493;-45
2023/05/27 03:25:11;;;;;;;16.33;5.67;;;9.20;99.90;;;;;;5200679;28;20449;-45
2023/05/27 03:27:41;;;;;;;16.30;4.50;;;9.20;99.90;;;;;;5196190;28;20446;-46
2023/05/27 03:30:12;;;;;;;15.03;5.37;;;9.30;99.90;;;;;;5177035;28;20490;-45
2023/05/27 03:32:43;;;;;;;14.30;4.80;;;9.30;99.90;;;;;;5180860;28;20195;-46
2023/05/27 03:35:13;;;;;;;16.70;5.00;;;9.30;99.90;;;;;;5199118;28;20211;-46
2023/05/27 03:37:44;;;;;;;12.73;5.03;;;9.40;99.90;;;;;;5197462;28;20195;-44
2023/05/27 03:40:15;;;;;;;8.77;3.83;;;9.40;99.90;;;;;;5199126;28;20562;-46
2023/05/27 03:42:45;;;;;;;11.03;4.27;;;9.50;99.90;;;;;;5197531;28;20184;-46
2023/05/27 03:45:16;;;;;;;9.10;4.50;;;9.50;99.90;;;;;;5193713;28;20187;-44
2023/05/27 03:47:47;;;;;;;11.07;4.30;;;9.60;99.90;;;;;;5198485;28;20191;-44
2023/05/27 03:50:17;;;;;;;18.73;4.07;;;9.60;99.90;;;;;;5195933;28;20207;-45
2023/05/27 03:52:48;;;;;;;10.23;5.07;;;9.70;99.90;;;;;;5194886;28;20187;-45
2023/05/27 03:55:20;;;;;;;9.20;5.03;;;9.80;99.90;;;;;;5177751;28;20264;-44
2023/05/27 03:57:51;;;;;;;6.77;3.37;;;9.80;99.90;;;;;;5195809;28;20593;-45
2023/05/27 04:00:22;;;;;;;11.23;4.07;;;9.90;99.90;;;;;;5197245;28;20509;-44
2023/05/27 04:02:52;;;;;;;15.40;5.07;;;10.00;99.90;;;;;;5194379;28;20184;-44
2023/05/27 04:05:23;;;;;;;10.27;4.00;;;10.10;99.90;;;;;;5199885;28;20723;-45
2023/05/27 04:07:53;;;;;;;12.53;4.23;;;10.20;99.90;;;;;;5177892;28;20179;-45
2023/05/27 04:10:24;;;;;;;13.07;5.10;;;10.30;99.90;;;;;;5196575;28;20187;-44
2023/05/27 04:12:55;;;;;;;17.53;4.63;;;10.30;99.90;;;;;;5196782;28;20222;-45
2023/05/27 04:15:26;;;;;;;18.73;5.23;;;10.40;99.90;;;;;;5192103;28;20299;-44
2023/05/27 04:17:56;;;;;;;10.53;4.40;;;10.50;99.90;;;;;;5195998;28;20274;-47
2023/05/27 04:20:40;;;;;;;16.30;4.17;;;10.70;99.90;;;;;;5193632;28;20525;-45
2023/05/27 04:23:10;;;;;;;22.53;5.80;;;10.90;99.90;;;;;;5193702;28;20179;-44
2023/05/27 04:25:41;;;;;;;17.03;5.03;;;11.00;99.90;;;;;;5201444;28;20461;-45
2023/05/27 04:28:12;;;;;;;11.33;4.43;;;11.10;99.90;;;;;;5181463;28;20192;-44
2023/05/27 04:30:48;;;;;;;7.33;4.33;;;11.10;99.90;;;;;;5181403;28;20196;-45
2023/05/27 04:33:18;;;;;;;14.77;4.70;;;11.10;99.90;;;;;;5196575;28;20665;-45
2023/05/27 04:35:53;;;;;;;11.40;3.90;;;11.10;99.90;;;;;;5192449;28;20434;-45
2023/05/27 04:38:23;;;;;;;16.30;4.50;;;11.20;99.90;;;;;;5195417;28;20218;-45
2023/05/27 04:40:55;;;;;;;14.13;4.73;;;11.30;99.90;;;;;;5199097;28;20438;-44
2023/05/27 04:43:26;;;;;;;16.90;5.10;;;11.30;99.90;;;;;;5198248;28;20202;-46
2023/05/27 04:45:59;;;;;;;8.03;4.70;;;11.40;99.90;;;;;;5194862;28;20496;-44
2023/05/27 04:48:29;;;;;;;12.63;5.03;;;11.70;99.90;;;;;;5198314;28;20866;-46
2023/05/27 04:51:00;;;;;;;13.03;4.27;;;12.00;99.90;;;;;;5194425;28;20443;-45
2023/05/27 04:53:32;;;;;;;21.57;5.70;;;12.30;99.90;;;;;;5198347;28;21000;-45
2023/05/27 04:56:02;;;;;;;14.93;5.60;;;12.40;99.90;;;;;;5202012;28;20175;-45
2023/05/27 04:58:33;;;;;;;15.97;4.40;;;12.60;99.90;;;;;;5199692;28;20469;-44
2023/05/27 05:01:04;;;;;;;19.57;4.37;;;12.80;99.90;;;;;;5202344;28;20291;-45
2023/05/27 05:03:50;;;;;;;12.83;4.17;;;13.00;99.90;;;;;;5198231;28;20653;-45
2023/05/27 05:06:22;;;;;;;19.83;4.70;;;13.30;99.90;;;;;;5204356;28;20394;-46
2023/05/27 05:08:52;;;;;;;8.33;3.90;;;13.80;99.90;;;;;;5198307;28;20470;-45
2023/05/27 05:11:23;;;;;;;13.20;4.27;;;14.50;99.90;;;;;;5201328;28;20441;-46
2023/05/27 05:13:54;;;;;;;14.57;4.57;;;15.10;99.90;;;;;;5200185;28;20212;-45
2023/05/27 05:16:24;;;;;;;18.37;5.17;;;15.60;99.90;;;;;;5194742;28;20270;-44
2023/05/27 05:18:56;;;;;;;13.70;4.37;;;16.00;99.90;;;;;;5171171;28;20203;-46
2023/05/27 05:21:27;;;;;;;12.60;4.33;;;16.70;98.70;;;;;;5192661;28;20241;-44
2023/05/27 05:23:58;;;;;;;10.90;3.77;;;17.30;94.30;;;;;;5196870;28;20442;-44
2023/05/27 05:26:29;;;;;;;10.00;3.53;;;18.20;90.40;;;;;;5192384;28;20955;-46
2023/05/27 05:28:59;;;;;;;18.10;5.20;;;19.30;82.20;;;;;;5187556;28;20223;-45
2023/05/27 05:31:30;;;;;;;8.90;3.50;;;20.70;69.90;;;;;;5190955;28;20534;-46
2023/05/27 05:34:01;;;;;;;9.90;3.73;;;22.60;60.90;;;;;;5191841;28;20297;-45
2023/05/27 05:36:33;;;;;;;14.33;3.40;;;24.00;52.40;;;;;;5199601;28;20258;-45
2023/05/27 05:39:04;;;;;;;7.63;3.23;;;25.30;47.50;;;;;;5203610;28;20242;-44
2023/05/27 05:41:35;;;;;;;4.33;3.50;;;26.40;42.90;;;;;;5198069;28;20524;-45
2023/05/27 05:44:06;;;;;;;11.03;3.83;;;27.30;40.90;;;;;;5201077;28;20176;-45
2023/05/27 05:46:36;;;;;;;8.60;3.57;;;27.80;38.20;;;;;;5192033;28;20195;-45
2023/05/27 05:49:07;;;;;;;6.63;2.93;;;28.60;38.40;;;;;;5181185;28;20495;-45
2023/05/27 05:51:38;;;;;;;5.83;2.80;;;28.80;35.90;;;;;;5200490;28;20606;-45
2023/05/27 05:54:08;;;;;;;9.67;3.50;;;29.60;35.30;;;;;;5191451;28;20675;-45
2023/05/27 05:56:39;;;;;;;8.17;3.40;;;30.30;33.10;;;;;;5197512;28;20187;-45
2023/05/27 05:59:10;;;;;;;5.93;3.20;;;30.60;32.70;;;;;;5198936;28;20259;-44
2023/05/27 06:01:40;;;;;;;6.90;2.40;;;30.60;31.50;;;;;;5197318;28;20449;-46
2023/05/27 06:04:11;;;;;;;7.30;2.90;;;31.10;31.00;;;;;;5193570;28;20635;-46
2023/05/27 06:06:42;;;;;;;3.77;2.00;;;30.70;30.00;;;;;;5201561;28;20274;-45
2023/05/27 06:09:12;;;;;;;10.10;2.37;;;30.10;30.40;;;;;;5197765;28;20256;-45
2023/05/27 06:11:43;;;;;;;6.63;2.37;;;29.20;31.00;;;;;;5198954;28;20199;-45
2023/05/27 06:14:14;;;;;;;5.73;2.37;;;28.50;31.20;;;;;;5204433;28;20689;-45
2023/05/27 06:16:44;;;;;;;11.73;2.07;;;27.40;31.30;;;;;;5206193;28;20187;-44
2023/05/27 06:19:15;;;;;;;3.90;1.60;;;26.80;33.00;;;;;;5203297;28;20626;-45
2023/05/27 06:21:45;;;;;;;1.70;1.60;;;27.40;32.00;;;;;;5206091;28;20176;-45
2023/05/27 06:24:16;;;;;;;1.73;1.33;;;28.00;29.80;;;;;;5205665;28;20175;-45
2023/05/27 06:26:47;;;;;;;2.67;1.70;;;27.70;29.10;;;;;;5205069;28;20273;-47
2023/05/27 06:29:18;;;;;;;3.03;1.63;;;27.20;30.30;;;;;;5205356;28;20217;-45
2023/05/27 06:31:48;;;;;;;5.63;1.33;;;28.50;29.90;;;;;;5204517;28;20190;-45
2023/05/27 06:34:19;;;;;;;1.80;0.90;;;29.60;27.90;;;;;;5204422;28;20282;-46
2023/05/27 06:36:50;;;;;;;2.67;1.20;;;29.20;26.90;;;;;;5204818;28;20180;-44
2023/05/27 06:39:20;;;;;;;8.87;2.13;;;29.30;27.50;;;;;;5203796;28;20258;-45
2023/05/27 06:41:51;;;;;;;0.87;0.87;;;29.60;27.30;;;;;;5202672;28;20230;-44
2023/05/27 06:44:22;;;;;;;0.90;0.90;;;29.20;27.10;;;;;;5203493;28;20744;-45
2023/05/27 06:46:52;;;;;;;1.40;0.90;;;30.00;26.40;;;;;;5185909;28;20183;-45
2023/05/27 06:49:23;;;;;;;3.07;1.20;;;30.10;25.50;;;;;;5202024;28;20303;-45
2023/05/27 06:51:54;;;;;;;2.13;1.00;;;29.60;25.90;;;;;;5203718;28;20237;-44
2023/05/27 06:54:24;;;;;;;7.00;1.57;;;29.10;25.40;;;;;;5201806;28;20234;-45
2023/05/27 06:56:55;;;;;;;3.40;1.40;;;29.20;26.90;;;;;;5204810;28;20875;-46
2023/05/27 06:59:25;;;;;;;3.03;1.30;;;29.20;26.50;;;;;;5203375;28;20231;-45
2023/05/27 07:01:56;;;;;;;4.80;0.93;;;29.40;26.80;;;;;;5200699;28;20639;-46
2023/05/27 07:04:27;;;;;;;2.37;1.13;;;30.90;25.70;;;;;;5200859;28;20270;-46
2023/05/27 07:06:57;;;;;;;1.27;1.17;;;31.70;24.30;;;;;;5201445;28;20291;-45
2023/05/27 07:09:28;;;;;;;4.83;1.30;;;32.40;24.30;;;;;;5203311;28;20203;-46
2023/05/27 07:12:00;;;;;;;2.70;1.40;;;32.10;24.90;;;;;;5202113;28;20537;-47
2023/05/27 07:14:31;;;;;;;5.30;1.40;;;31.80;25.00;;;;;;5200822;28;20257;-45
2023/05/27 07:17:02;;;;;;;1.50;1.33;;;32.00;24.40;;;;;;5202914;28;20851;-45
2023/05/27 07:19:32;;;;;;;2.53;1.17;;;32.90;24.30;;;;;;5201807;28;20278;-46
2023/05/27 07:22:03;;;;;;;0.70;0.70;;;33.00;23.60;;;;;;5200117;28;20237;-47
2023/05/27 07:24:34;;;;;;;2.93;0.83;;;33.10;22.80;;;;;;5203174;28;20190;-45
2023/05/27 07:27:04;;;;;;;0.80;0.80;;;33.90;22.00;;;;;;5200923;28;20199;-45
2023/05/27 07:29:35;;;;;;;1.03;0.60;;;33.80;21.10;;;;;;5201808;28;20198;-45
2023/05/27 07:32:05;;;;;;;2.20;0.80;;;32.80;22.30;;;;;;5203767;28;20273;-46
2023/05/27 07:34:36;;;;;;;1.17;1.07;;;33.00;21.70;;;;;;5201872;28;20210;-45
2023/05/27 07:37:07;;;;;;;1.30;0.80;;;34.00;21.80;;;;;;5203686;28;20187;-45
2023/05/27 07:39:37;;;;;;;0.77;0.77;;;34.70;21.40;;;;;;5199524;28;20203;-47
2023/05/27 07:42:08;;;;;;;2.50;0.70;;;34.50;20.40;;;;;;5201649;28;20248;-44
2023/05/27 07:44:38;;;;;;;0.97;0.77;;;32.70;20.30;;;;;;5203072;28;20643;-43
2023/05/27 07:47:09;;;;;;;3.43;0.77;;;32.00;21.90;;;;;;5204437;28;20180;-44
2023/05/27 07:49:40;;;;;;;3.50;1.17;;;30.70;22.40;;;;;;5196173;28;20214;-46
2023/05/27 07:52:10;;;;;;;0.90;0.90;;;30.30;23.40;;;;;;5191662;28;20199;-45
2023/05/27 07:54:41;;;;;;;2.93;0.93;;;31.60;22.80;;;;;;5210047;28;20696;-46
2023/05/27 07:57:12;;;;;;;0.93;0.70;;;32.40;22.30;;;;;;5205753;28;20318;-45
2023/05/27 07:59:43;;;;;;;0.70;0.70;;;32.50;21.40;;;;;;5210551;28;20203;-45
2023/05/27 08:02:13;;;;;;;0.47;0.47;;;33.20;21.50;;;;;;5195165;28;20202;-45
2023/05/27 08:04:44;;;;;;;2.10;1.00;;;33.80;21.00;;;;;;5196002;28;20446;-46
2023/05/27 08:07:15;;;;;;;0.70;0.70;;;33.00;20.30;;;;;;5197945;28;20655;-47
2023/05/27 08:09:45;;;;;;;1.40;0.70;;;32.60;20.90;;;;;;5195329;28;20753;-44
2023/05/27 08:12:16;;;;;;;1.97;0.53;;;32.40;20.30;;;;;;5202936;28;20218;-45
2023/05/27 08:14:47;;;;;;;1.03;0.70;;;32.20;20.70;;;;;;5201344;28;20265;-46
2023/05/27 08:17:18;;;;;;;3.70;1.20;;;32.10;21.00;;;;;;5199604;28;20183;-45
2023/05/27 08:19:48;;;;;;;1.13;0.80;;;32.20;20.20;;;;;;5202437;28;20823;-48
2023/05/27 08:22:19;;;;;;;1.03;0.60;;;31.60;19.70;;;;;;5201590;28;20245;-46
2023/05/27 08:24:51;;;;;;;0.60;0.60;;;30.70;20.80;;;;;;5202679;28;20182;-46
2023/05/27 08:27:51;;;;;;;0.90;0.90;;;31.20;21.10;;;;;;5189032;28;20652;-44
2023/05/27 08:30:22;;;;;;;1.40;1.07;;;31.50;21.10;;;;;;5217925;28;20454;-46
2023/05/27 08:32:52;;;;;;;1.53;0.77;;;31.70;21.00;;;;;;5204237;28;20425;-46
2023/05/27 08:35:23;;;;;;;1.47;0.50;;;31.80;21.20;;;;;;5203641;28;20695;-46
2023/05/27 08:37:54;;;;;;;2.07;0.93;;;32.30;20.60;;;;;;5202644;28;20194;-46
2023/05/27 08:40:24;;;;;;;1.80;1.00;;;32.50;21.20;;;;;;5202327;28;20206;-46
2023/05/27 08:42:55;;;;;;;0.80;0.80;;;32.10;21.20;;;;;;5209413;28;20575;-47
2023/05/27 08:45:26;;;;;;;0.67;0.67;;;32.40;20.80;;;;;;5212997;28;20522;-46
2023/05/27 08:47:57;;;;;;;0.70;0.70;;;30.90;20.50;;;;;;5209313;28;20443;-47
2023/05/27 08:50:27;;;;;;;0.80;0.80;;;27.80;22.60;;;;;;5206291;28;20285;-47
2023/05/27 08:52:59;;;;;;;2.60;0.70;;;25.40;24.70;;;;;;5203621;28;20191;-47
2023/05/27 08:55:31;;;;;;;1.10;1.00;;;23.70;25.40;;;;;;5201246;28;20633;-45
2023/05/27 08:58:05;;;;;;;0.73;0.60;;;22.80;26.30;;;;;;5200867;28;20449;-45
2023/05/27 09:00:35;;;;;;;0.53;0.53;;;22.20;27.00;;;;;;5202824;28;20517;-45
2023/05/27 09:03:06;;;;;;;1.03;0.40;;;21.20;26.00;;;;;;5199454;28;20987;-45
2023/05/27 09:05:38;;;;;;;2.47;0.70;;;20.70;27.30;;;;;;5201559;28;20172;-44
2023/05/27 09:08:09;;;;;;;2.83;0.67;;;20.20;28.00;;;;;;5201895;28;20702;-44
2023/05/27 09:10:42;;;;;;;1.23;0.80;;;19.70;29.30;;;;;;5206784;28;20442;-44
2023/05/27 09:13:13;;;;;;;2.00;1.10;;;19.20;29.50;;;;;;5207034;28;20249;-46
2023/05/27 09:15:43;;;;;;;0.63;0.63;;;19.20;29.90;;;;;;5206057;28;20472;-45
2023/05/27 09:18:14;;;;;;;1.00;1.00;;;19.10;29.40;;;;;;5201894;28;20199;-46
2023/05/27 09:20:45;;;;;;;5.23;1.10;;;19.20;30.00;;;;;;5196644;28;20179;-46
2023/05/27 09:23:16;;;;;;;1.70;0.90;;;19.00;29.90;;;;;;5196437;28;20187;-45
2023/05/27 09:25:47;;;;;;;3.90;1.03;;;19.00;29.90;;;;;;5200685;28;20574;-45
2023/05/27 09:28:25;;;;;;;0.93;0.93;;;18.90;30.40;;;;;;5199341;28;20184;-45
2023/05/27 09:31:02;;;;;;;0.60;0.60;;;18.80;30.50;;;;;;5197903;28;20447;-44
2023/05/27 09:33:34;;;;;;;0.90;0.67;;;18.70;30.20;;;;;;5201247;28;20467;-45
2023/05/27 09:36:06;;;;;;;0.73;0.73;;;18.80;30.80;;;;;;5201612;28;20445;-47
2023/05/27 09:38:37;;;;;;;0.80;0.80;;;19.00;30.50;;;;;;5200860;28;20677;-45
2023/05/27 09:41:07;;;;;;;1.33;1.33;;;19.20;30.50;;;;;;5203886;28;20430;-47
2023/05/27 09:43:38;;;;;;;1.73;1.00;;;19.10;31.00;;;;;;5202414;28;20247;-44
2023/05/27 09:46:13;;;;;;;1.27;0.67;;;19.10;31.80;;;;;;5198958;28;20183;-46
2023/05/27 09:48:43;;;;;;;1.20;1.13;;;19.10;31.50;;;;;;5201429;28;20225;-45
2023/05/27 09:51:15;;;;;;;4.83;0.93;;;19.10;32.20;;;;;;5202291;28;20469;-46
2023/05/27 09:53:47;;;;;;;1.03;1.03;;;19.00;31.50;;;;;;5200515;28;20203;-45
2023/05/27 09:56:18;;;;;;;4.23;0.90;;;18.90;31.60;;;;;;5202006;28;20431;-45
2023/05/27 09:58:49;;;;;;;0.60;0.60;;;18.70;32.00;;;;;;5204748;28;20461;-46
2023/05/27 10:01:21;;;;;;;1.80;0.97;;;18.80;32.00;;;;;;5206650;28;20219;-46
2023/05/27 10:03:53;;;;;;;2.30;1.63;;;19.20;32.60;;;;;;5205767;28;20644;-46
2023/05/27 10:06:25;;;;;;;1.47;1.30;;;19.50;31.70;;;;;;5203951;28;21312;-45
2023/05/27 10:08:56;;;;;;;0.83;0.83;;;19.60;31.50;;;;;;5205762;28;20426;-46
2023/05/27 10:11:38;;;;;;;1.10;1.00;;;19.70;31.60;;;;;;5202880;28;20434;-47
2023/05/27 10:14:10;;;;;;;1.70;0.70;;;19.50;31.60;;;;;;5204922;28;20237;-45
2023/05/27 10:16:51;;;;;;;1.80;1.53;;;19.30;31.20;;;;;;5201986;28;20445;-46
2023/05/27 10:19:22;;;;;;;0.90;0.90;;;19.40;31.60;;;;;;5205581;28;20458;-45
2023/05/27 10:21:53;;;;;;;1.20;1.10;;;19.50;31.70;;;;;;5194489;28;20461;-46
2023/05/27 10:24:32;;;;;;;1.50;1.40;;;19.60;31.10;;;;;;5206141;28;20253;-46
2023/05/27 10:27:04;;;;;;;1.10;1.00;;;19.60;31.20;;;;;;5210436;28;20534;-45
2023/05/27 10:29:37;;;;;;;1.23;1.10;;;19.50;31.20;;;;;;5204245;28;20461;-45
2023/05/27 10:32:07;;;;;;;0.97;0.90;;;19.30;31.70;;;;;;5207313;28;20442;-44
2023/05/27 10:34:43;;;;;;;2.10;1.00;;;19.30;32.50;;;;;;5203545;28;21041;-44
2023/05/27 10:37:20;;;;;;;0.80;0.80;;;19.10;32.80;;;;;;5199522;28;20309;-45
2023/05/27 10:39:56;;;;;;;1.27;0.90;;;19.20;33.30;;;;;;5202434;28;20454;-46
2023/05/27 10:42:27;;;;;;;1.00;0.90;;;19.40;32.90;;;;;;5203278;28;20516;-45
2023/05/27 10:45:10;;;;;;;1.17;1.10;;;19.50;32.60;;;;;;5205074;28;20958;-47
2023/05/27 10:47:45;;;;;;;1.73;1.00;;;19.60;32.20;;;;;;5206526;28;20677;-47
2023/05/27 10:50:16;;;;;;;2.97;1.10;;;19.50;32.50;;;;;;5201394;28;21645;-45
2023/05/27 10:52:48;;;;;;;1.63;1.53;;;19.70;33.30;;;;;;5192257;28;20438;-46
2023/05/27 10:55:20;;;;;;;1.47;1.20;;;19.60;32.70;;;;;;5197201;28;20290;-45
2023/05/27 10:57:52;;;;;;;1.13;1.10;;;19.40;33.30;;;;;;5195463;28;20782;-45
2023/05/27 11:00:27;;;;;;;1.27;0.70;;;19.40;33.70;;;;;;5202696;28;20432;-47
2023/05/27 11:02:58;;;;;;;1.90;1.37;;;19.20;33.60;;;;;;5199594;28;20433;-46
2023/05/27 11:05:32;;;;;;;1.00;1.00;;;19.10;34.00;;;;;;5205874;28;20962;-45
2023/05/27 11:08:05;;;;;;;1.20;1.20;;;19.10;33.70;;;;;;5198686;28;20226;-46
2023/05/27 11:10:36;;;;;;;1.30;1.10;;;18.90;33.40;;;;;;5188345;28;21379;-46
2023/05/27 11:13:07;;;;;;;1.13;1.10;;;18.90;33.30;;;;;;5200641;28;20434;-46
2023/05/27 11:15:41;;;;;;;2.23;1.10;;;19.00;33.40;;;;;;5202539;28;20214;-46
2023/05/27 11:18:12;;;;;;;1.07;1.00;;;19.00;33.20;;;;;;5203623;28;20221;-45
2023/05/27 11:20:43;;;;;;;4.00;1.47;;;19.10;33.90;;;;;;5203647;28;20488;-46
2023/05/27 11:23:13;;;;;;;0.97;0.97;;;19.10;34.30;;;;;;5206440;28;20443;-45
2023/05/27 11:25:44;;;;;;;2.07;1.20;;;19.10;33.60;;;;;;5222073;28;20188;-45
2023/05/27 11:28:16;;;;;;;2.00;1.40;;;18.90;33.40;;;;;;5204350;28;20176;-46
2023/05/27 11:30:47;;;;;;;1.80;1.10;;;18.80;33.90;;;;;;5196341;28;20188;-46
2023/05/27 11:33:18;;;;;;;1.30;1.13;;;18.80;34.00;;;;;;5202577;28;20446;-46
2023/05/27 11:35:48;;;;;;;6.20;1.77;;;18.90;34.60;;;;;;5205358;28;20306;-45
2023/05/27 11:38:19;;;;;;;2.70;1.70;;;19.10;34.20;;;;;;5199901;28;20179;-45
2023/05/27 11:40:50;;;;;;;8.17;1.53;;;19.20;34.30;;;;;;5201186;28;20186;-45
2023/05/27 11:43:20;;;;;;;1.20;1.17;;;19.20;34.60;;;;;;5196536;28;20168;-45
2023/05/27 11:45:51;;;;;;;1.27;1.20;;;19.30;34.40;;;;;;5199181;28;20557;-45
2023/05/27 11:48:22;;;;;;;2.93;1.10;;;19.50;34.50;;;;;;5198578;28;20688;-46
2023/05/27 11:50:52;;;;;;;1.80;1.70;;;19.40;33.00;;;;;;5203244;28;20176;-45
2023/05/27 11:53:26;;;;;;;1.30;1.00;;;19.30;33.50;;;;;;5200369;28;20275;-46
2023/05/27 11:55:57;;;;;;;2.10;1.33;;;19.30;33.00;;;;;;5201464;28;20172;-45
2023/05/27 11:58:27;;;;;;;3.87;1.60;;;19.40;33.70;;;;;;5201579;28;20457;-45
2023/05/27 12:00:58;;;;;;;1.33;1.00;;;19.50;33.70;;;;;;5203320;28;20697;-46
2023/05/27 12:03:29;;;;;;;1.50;1.50;;;19.70;33.30;;;;;;5202854;28;20238;-46
2023/05/27 12:06:00;;;;;;;1.50;1.30;;;19.60;32.80;;;;;;5201832;28;20211;-46
2023/05/27 12:08:30;;;;;;;5.60;1.63;;;19.60;32.90;;;;;;5203406;28;20954;-46
2023/05/27 12:11:01;;;;;;;1.53;1.13;;;19.60;32.90;;;;;;5203653;28;20632;-45
2023/05/27 12:13:32;;;;;;;1.20;1.20;;;19.50;32.80;;;;;;5205308;28;21287;-44
2023/05/27 12:16:05;;;;;;;1.03;1.00;;;19.50;32.80;;;;;;5204960;28;20219;-46
2023/05/27 12:18:36;;;;;;;1.40;1.30;;;19.60;32.70;;;;;;5197961;28;20242;-45
2023/05/27 12:21:07;;;;;;;3.40;1.33;;;19.70;32.80;;;;;;5201024;28;20451;-47
2023/05/27 12:23:38;;;;;;;5.90;1.20;;;19.90;32.20;;;;;;5198780;28;20451;-47
2023/05/27 12:26:12;;;;;;;1.00;1.00;;;19.90;31.30;;;;;;5215912;28;20442;-45
2023/05/27 12:28:44;;;;;;;1.27;1.20;;;19.80;31.40;;;;;;5201435;28;20803;-45
2023/05/27 12:31:14;;;;;;;1.07;1.07;;;19.80;31.20;;;;;;5205624;28;21012;-45
2023/05/27 12:33:45;;;;;;;1.50;1.50;;;19.80;31.40;;;;;;5201575;28;20511;-46
2023/05/27 12:36:16;;;;;;;4.87;0.83;;;20.00;32.10;;;;;;5203060;28;20257;-46
2023/05/27 12:38:46;;;;;;;1.40;1.30;;;20.10;32.00;;;;;;5204851;28;20353;-46
2023/05/27 12:41:17;;;;;;;1.23;1.13;;;20.10;31.20;;;;;;5200872;28;20286;-44
2023/05/27 12:43:48;;;;;;;5.20;1.30;;;20.00;31.30;;;;;;5200966;28;20199;-45
2023/05/27 12:46:18;;;;;;;1.40;1.00;;;19.90;31.40;;;;;;5196433;28;20218;-45
2023/05/27 12:48:49;;;;;;;1.83;1.60;;;19.90;31.70;;;;;;5195569;28;20203;-46
2023/05/27 12:51:20;;;;;;;1.23;0.93;;;19.70;31.70;;;;;;5200116;28;20192;-46
2023/05/27 12:53:51;;;;;;;1.10;1.00;;;19.70;31.50;;;;;;5206168;28;20290;-46
2023/05/27 12:56:21;;;;;;;3.40;0.97;;;19.60;31.70;;;;;;5205007;28;20491;-46
2023/05/27 12:58:52;;;;;;;1.73;1.37;;;19.70;31.30;;;;;;5207574;28;20207;-46
2023/05/27 13:01:23;;;;;;;1.70;1.53;;;19.70;31.90;;;;;;5206147;28;20183;-46
2023/05/27 13:03:53;;;;;;;1.00;1.00;;;19.70;31.90;;;;;;5204110;28;20262;-45
2023/05/27 13:06:24;;;;;;;1.53;1.43;;;19.80;31.40;;;;;;5207285;28;20201;-46
2023/05/27 13:08:55;;;;;;;1.60;1.50;;;20.00;32.00;;;;;;5205053;28;20250;-45